sensor_id;sensor_type;location;lat;lon;timestamp;pressure;altitude;pressure_sealevel;temperature;humidity
39275;BME280;24980;48.874;2.332;2023-04-01T00:00:38;99808.84;;;20.59;56.34
39275;BME280;24980;48.874;2.332;2023-04-01T00:03:08;99813.41;;;20.58;56.41
39275;BME280;24980;48.874;2.332;2023-04-01T00:05:38;99824.06;;;20.57;56.49
39275;BME280;24980;48.874;2.332;2023-04-01T00:08:08;99826.69;;;20.56;56.58
39275;BME280;24980;48.874;2.332;2023-04-01T00:10:38;99824.20;;;20.55;56.64
39275;BME280;24980;48.874;2.332;2023-04-01T00:13:11;99820.35;;;20.53;56.71
39275;BME280;24980;48.874;2.332;2023-04-01T00:15:39;99821.35;;;20.50;56.76
39275;BME280;24980;48.874;2.332;2023-04-01T00:18:09;99820.53;;;20.48;56.81
39275;BME280;24980;48.874;2.332;2023-04-01T00:20:43;99826.64;;;20.47;56.86
39275;BME280;24980;48.874;2.332;2023-04-01T00:23:10;99822.36;;;20.47;56.88
39275;BME280;24980;48.874;2.332;2023-04-01T00:25:41;99822.29;;;20.45;56.90
39275;BME280;24980;48.874;2.332;2023-04-01T00:28:12;99823.77;;;20.44;56.92
39275;BME280;24980;48.874;2.332;2023-04-01T00:30:42;99824.62;;;20.43;56.93
39275;BME280;24980;48.874;2.332;2023-04-01T00:33:13;99827.95;;;20.42;56.94
39275;BME280;24980;48.874;2.332;2023-04-01T00:35:43;99827.38;;;20.41;56.95
39275;BME280;24980;48.874;2.332;2023-04-01T00:38:14;99834.38;;;20.40;56.95
39275;BME280;24980;48.874;2.332;2023-04-01T00:40:45;99841.53;;;20.40;56.95
39275;BME280;24980;48.874;2.332;2023-04-01T00:43:17;99831.74;;;20.38;56.96
39275;BME280;24980;48.874;2.332;2023-04-01T00:45:49;99826.53;;;20.37;56.97
39275;BME280;24980;48.874;2.332;2023-04-01T00:48:18;99836.14;;;20.36;56.98
39275;BME280;24980;48.874;2.332;2023-04-01T00:50:53;99837.02;;;20.35;56.97
39275;BME280;24980;48.874;2.332;2023-04-01T00:53:22;99843.69;;;20.34;56.98
39275;BME280;24980;48.874;2.332;2023-04-01T00:58:21;99827.96;;;20.33;56.98
39275;BME280;24980;48.874;2.332;2023-04-01T01:00:50;99824.69;;;20.33;56.99
39275;BME280;24980;48.874;2.332;2023-04-01T01:03:20;99827.89;;;20.33;56.99
39275;BME280;24980;48.874;2.332;2023-04-01T01:06:01;99836.86;;;20.32;56.99
39275;BME280;24980;48.874;2.332;2023-04-01T01:08:39;99829.28;;;20.32;57.00
39275;BME280;24980;48.874;2.332;2023-04-01T01:10:50;99830.14;;;20.30;57.00
39275;BME280;24980;48.874;2.332;2023-04-01T01:13:36;99842.69;;;20.29;57.01
39275;BME280;24980;48.874;2.332;2023-04-01T01:16:10;99828.38;;;20.29;57.02
39275;BME280;24980;48.874;2.332;2023-04-01T01:21:09;99823.73;;;20.27;57.02
39275;BME280;24980;48.874;2.332;2023-04-01T01:23:45;99828.18;;;20.28;57.03
39275;BME280;24980;48.874;2.332;2023-04-01T01:31:18;99837.98;;;20.25;57.06
39275;BME280;24980;48.874;2.332;2023-04-01T01:33:44;99828.12;;;20.25;57.09
39275;BME280;24980;48.874;2.332;2023-04-01T01:35:56;99822.00;;;20.24;57.12
39275;BME280;24980;48.874;2.332;2023-04-01T01:38:29;99824.20;;;20.23;57.14
39275;BME280;24980;48.874;2.332;2023-04-01T01:41:04;99823.95;;;20.23;57.14
39275;BME280;24980;48.874;2.332;2023-04-01T01:43:29;99832.15;;;20.22;57.15
39275;BME280;24980;48.874;2.332;2023-04-01T01:45:59;99841.91;;;20.22;57.15
39275;BME280;24980;48.874;2.332;2023-04-01T01:48:27;99843.94;;;20.21;57.15
39275;BME280;24980;48.874;2.332;2023-04-01T01:50:57;99846.80;;;20.21;57.15
39275;BME280;24980;48.874;2.332;2023-04-01T01:53:27;99853.20;;;20.20;57.16
39275;BME280;24980;48.874;2.332;2023-04-01T01:55:57;99840.68;;;20.20;57.14
39275;BME280;24980;48.874;2.332;2023-04-01T01:58:30;99847.20;;;20.19;57.15
39275;BME280;24980;48.874;2.332;2023-04-01T02:01:03;99844.02;;;20.18;57.15
39275;BME280;24980;48.874;2.332;2023-04-01T02:03:30;99853.02;;;20.18;57.15
39275;BME280;24980;48.874;2.332;2023-04-01T02:06:00;99849.33;;;20.17;57.16
39275;BME280;24980;48.874;2.332;2023-04-01T02:08:49;99852.78;;;20.16;57.16
39275;BME280;24980;48.874;2.332;2023-04-01T02:11:06;99855.09;;;20.16;57.16
39275;BME280;24980;48.874;2.332;2023-04-01T02:13:52;99848.03;;;20.15;57.16
39275;BME280;24980;48.874;2.332;2023-04-01T02:16:05;99854.67;;;20.15;57.16
39275;BME280;24980;48.874;2.332;2023-04-01T02:18:33;99859.48;;;20.15;57.17
39275;BME280;24980;48.874;2.332;2023-04-01T02:21:05;99851.92;;;20.14;57.17
39275;BME280;24980;48.874;2.332;2023-04-01T02:23:35;99850.92;;;20.13;57.17
39275;BME280;24980;48.874;2.332;2023-04-01T02:26:07;99854.06;;;20.13;57.18
39275;BME280;24980;48.874;2.332;2023-04-01T02:28:33;99849.69;;;20.13;57.18
39275;BME280;24980;48.874;2.332;2023-04-01T02:31:03;99853.16;;;20.12;57.18
39275;BME280;24980;48.874;2.332;2023-04-01T02:33:34;99850.97;;;20.11;57.19
39275;BME280;24980;48.874;2.332;2023-04-01T02:36:05;99852.66;;;20.11;57.19
39275;BME280;24980;48.874;2.332;2023-04-01T02:38:35;99857.38;;;20.10;57.20
39275;BME280;24980;48.874;2.332;2023-04-01T02:41:09;99846.48;;;20.10;57.19
39275;BME280;24980;48.874;2.332;2023-04-01T02:43:36;99850.87;;;20.09;57.20
39275;BME280;24980;48.874;2.332;2023-04-01T02:46:06;99858.94;;;20.09;57.20
39275;BME280;24980;48.874;2.332;2023-04-01T02:48:36;99855.16;;;20.08;57.19
39275;BME280;24980;48.874;2.332;2023-04-01T02:51:06;99864.92;;;20.08;57.21
39275;BME280;24980;48.874;2.332;2023-04-01T02:53:36;99870.14;;;20.07;57.20
39275;BME280;24980;48.874;2.332;2023-04-01T02:56:06;99863.45;;;20.06;57.20
39275;BME280;24980;48.874;2.332;2023-04-01T02:58:36;99880.36;;;20.07;57.22
39275;BME280;24980;48.874;2.332;2023-04-01T03:01:06;99864.98;;;20.06;57.21
39275;BME280;24980;48.874;2.332;2023-04-01T03:03:37;99864.57;;;20.05;57.21
39275;BME280;24980;48.874;2.332;2023-04-01T03:06:09;99870.70;;;20.05;57.21
39275;BME280;24980;48.874;2.332;2023-04-01T03:08:38;99875.08;;;20.05;57.22
39275;BME280;24980;48.874;2.332;2023-04-01T03:11:12;99876.77;;;20.04;57.22
39275;BME280;24980;48.874;2.332;2023-04-01T03:13:41;99872.23;;;20.04;57.22
39275;BME280;24980;48.874;2.332;2023-04-01T03:16:08;99878.84;;;20.03;57.22
39275;BME280;24980;48.874;2.332;2023-04-01T03:18:38;99875.39;;;20.02;57.22
39275;BME280;24980;48.874;2.332;2023-04-01T03:21:19;99893.14;;;20.02;57.23
39275;BME280;24980;48.874;2.332;2023-04-01T03:23:38;99879.27;;;20.01;57.22
39275;BME280;24980;48.874;2.332;2023-04-01T03:26:08;99881.72;;;20.01;57.22
39275;BME280;24980;48.874;2.332;2023-04-01T03:28:38;99885.25;;;20.01;57.22
39275;BME280;24980;48.874;2.332;2023-04-01T03:31:08;99897.73;;;20.00;57.23
39275;BME280;24980;48.874;2.332;2023-04-01T03:33:39;99904.98;;;19.99;57.23
39275;BME280;24980;48.874;2.332;2023-04-01T03:36:12;99902.12;;;19.99;57.22
39275;BME280;24980;48.874;2.332;2023-04-01T03:38:43;99902.62;;;19.99;57.22
39275;BME280;24980;48.874;2.332;2023-04-01T03:41:16;99893.22;;;19.98;57.21
39275;BME280;24980;48.874;2.332;2023-04-01T03:43:41;99905.50;;;19.97;57.21
39275;BME280;24980;48.874;2.332;2023-04-01T03:46:25;99894.02;;;19.96;57.21
39275;BME280;24980;48.874;2.332;2023-04-01T03:48:42;99896.05;;;19.96;57.20
39275;BME280;24980;48.874;2.332;2023-04-01T03:51:14;99905.98;;;19.95;57.20
39275;BME280;24980;48.874;2.332;2023-04-01T03:53:43;99903.46;;;19.94;57.19
39275;BME280;24980;48.874;2.332;2023-04-01T03:56:13;99900.69;;;19.94;57.18
39275;BME280;24980;48.874;2.332;2023-04-01T03:58:44;99906.28;;;19.93;57.18
39275;BME280;24980;48.874;2.332;2023-04-01T04:01:19;99901.66;;;19.93;57.18
39275;BME280;24980;48.874;2.332;2023-04-01T04:03:45;99902.75;;;19.93;57.19
39275;BME280;24980;48.874;2.332;2023-04-01T04:06:17;99912.34;;;19.93;57.19
39275;BME280;24980;48.874;2.332;2023-04-01T04:08:46;99915.45;;;19.92;57.18
39275;BME280;24980;48.874;2.332;2023-04-01T04:11:18;99906.38;;;19.92;57.16
39275;BME280;24980;48.874;2.332;2023-04-01T04:13:47;99916.56;;;19.91;57.17
39275;BME280;24980;48.874;2.332;2023-04-01T04:16:20;99912.06;;;19.90;57.17
39275;BME280;24980;48.874;2.332;2023-04-01T04:18:51;99916.44;;;19.90;57.21
39275;BME280;24980;48.874;2.332;2023-04-01T04:21:24;99918.95;;;19.90;57.25
39275;BME280;24980;48.874;2.332;2023-04-01T04:23:50;99919.77;;;19.91;57.30
39275;BME280;24980;48.874;2.332;2023-04-01T04:26:20;99921.27;;;19.91;57.35
39275;BME280;24980;48.874;2.332;2023-04-01T04:28:53;99919.38;;;19.90;57.34
39275;BME280;24980;48.874;2.332;2023-04-01T04:31:22;99927.80;;;19.89;57.32
39275;BME280;24980;48.874;2.332;2023-04-01T04:33:52;99928.30;;;19.89;57.30
39275;BME280;24980;48.874;2.332;2023-04-01T04:36:22;99926.28;;;19.89;57.28
39275;BME280;24980;48.874;2.332;2023-04-01T04:38:53;99928.81;;;19.88;57.26
39275;BME280;24980;48.874;2.332;2023-04-01T04:41:23;99936.22;;;19.87;57.25
39275;BME280;24980;48.874;2.332;2023-04-01T04:43:55;99941.39;;;19.87;57.22
39275;BME280;24980;48.874;2.332;2023-04-01T04:46:24;99944.51;;;19.86;57.21
39275;BME280;24980;48.874;2.332;2023-04-01T04:48:53;99942.58;;;19.85;57.20
39275;BME280;24980;48.874;2.332;2023-04-01T04:51:38;99944.94;;;19.85;57.18
39275;BME280;24980;48.874;2.332;2023-04-01T04:53:54;99949.40;;;19.84;57.17
39275;BME280;24980;48.874;2.332;2023-04-01T04:56:24;99948.42;;;19.84;57.15
39275;BME280;24980;48.874;2.332;2023-04-01T04:58:54;99955.25;;;19.83;57.15
39275;BME280;24980;48.874;2.332;2023-04-01T05:01:24;99949.11;;;19.83;57.15
39275;BME280;24980;48.874;2.332;2023-04-01T05:03:54;99952.48;;;19.82;57.16
39275;BME280;24980;48.874;2.332;2023-04-01T05:06:25;99949.12;;;19.82;57.16
39275;BME280;24980;48.874;2.332;2023-04-01T05:08:55;99950.30;;;19.81;57.16
39275;BME280;24980;48.874;2.332;2023-04-01T05:11:26;99954.33;;;19.81;57.16
39275;BME280;24980;48.874;2.332;2023-04-01T05:13:56;99964.68;;;19.81;57.16
39275;BME280;24980;48.874;2.332;2023-04-01T05:16:26;99959.42;;;19.81;57.17
39275;BME280;24980;48.874;2.332;2023-04-01T05:18:56;99965.47;;;19.81;57.18
39275;BME280;24980;48.874;2.332;2023-04-01T05:21:26;99967.62;;;19.81;57.23
39275;BME280;24980;48.874;2.332;2023-04-01T05:24:02;99967.11;;;19.81;57.29
39275;BME280;24980;48.874;2.332;2023-04-01T05:26:29;99973.88;;;19.81;57.37
39275;BME280;24980;48.874;2.332;2023-04-01T05:29:08;99966.19;;;19.82;57.45
39275;BME280;24980;48.874;2.332;2023-04-01T05:31:27;99976.03;;;19.81;57.53
39275;BME280;24980;48.874;2.332;2023-04-01T05:33:58;99972.66;;;19.82;57.59
39275;BME280;24980;48.874;2.332;2023-04-01T05:36:28;99980.89;;;19.83;57.65
39275;BME280;24980;48.874;2.332;2023-04-01T05:38:58;99978.88;;;19.83;57.64
39275;BME280;24980;48.874;2.332;2023-04-01T05:41:28;99979.22;;;19.82;57.63
39275;BME280;24980;48.874;2.332;2023-04-01T05:43:58;99985.02;;;19.82;57.59
39275;BME280;24980;48.874;2.332;2023-04-01T05:46:28;99978.80;;;19.81;57.56
39275;BME280;24980;48.874;2.332;2023-04-01T05:48:58;99985.23;;;19.81;57.53
39275;BME280;24980;48.874;2.332;2023-04-01T05:51:28;99977.50;;;19.80;57.49
39275;BME280;24980;48.874;2.332;2023-04-01T05:54:01;99992.14;;;19.79;57.46
39275;BME280;24980;48.874;2.332;2023-04-01T05:56:29;99989.70;;;19.78;57.41
39275;BME280;24980;48.874;2.332;2023-04-01T05:58:59;99988.57;;;19.77;57.38
39275;BME280;24980;48.874;2.332;2023-04-01T06:01:37;99988.15;;;19.77;57.36
39275;BME280;24980;48.874;2.332;2023-04-01T06:04:00;99996.90;;;19.77;57.33
39275;BME280;24980;48.874;2.332;2023-04-01T06:06:31;100005.15;;;19.76;57.31
39275;BME280;24980;48.874;2.332;2023-04-01T06:09:15;100003.45;;;19.77;57.28
39275;BME280;24980;48.874;2.332;2023-04-01T06:11:52;100009.86;;;19.81;57.24
39275;BME280;24980;48.874;2.332;2023-04-01T06:14:27;100018.98;;;19.83;57.17
39275;BME280;24980;48.874;2.332;2023-04-01T06:16:45;100023.12;;;19.87;57.12
39275;BME280;24980;48.874;2.332;2023-04-01T06:19:22;100024.50;;;19.90;57.07
39275;BME280;24980;48.874;2.332;2023-04-01T06:24:15;100029.21;;;19.89;57.06
39275;BME280;24980;48.874;2.332;2023-04-01T06:26:47;100025.81;;;19.87;57.08
39275;BME280;24980;48.874;2.332;2023-04-01T06:39:24;100041.19;;;19.82;57.22
39275;BME280;24980;48.874;2.332;2023-04-01T06:44:30;100048.38;;;19.80;57.33
39275;BME280;24980;48.874;2.332;2023-04-01T06:46:49;100050.23;;;19.80;57.38
39275;BME280;24980;48.874;2.332;2023-04-01T06:54:11;100049.95;;;19.76;57.34
39275;BME280;24980;48.874;2.332;2023-04-01T06:56:41;100053.32;;;19.76;57.33
39275;BME280;24980;48.874;2.332;2023-04-01T06:59:15;100055.25;;;19.76;57.33
39275;BME280;24980;48.874;2.332;2023-04-01T07:01:52;100052.82;;;19.75;57.32
39275;BME280;24980;48.874;2.332;2023-04-01T07:04:20;100050.97;;;19.75;57.31
39275;BME280;24980;48.874;2.332;2023-04-01T07:06:47;100058.03;;;19.75;57.31
39275;BME280;24980;48.874;2.332;2023-04-01T07:09:18;100064.97;;;19.74;57.32
39275;BME280;24980;48.874;2.332;2023-04-01T07:11:42;100062.11;;;19.74;57.33
39275;BME280;24980;48.874;2.332;2023-04-01T07:14:24;100058.50;;;19.72;57.33
39275;BME280;24980;48.874;2.332;2023-04-01T07:16:53;100062.70;;;19.73;57.33
39275;BME280;24980;48.874;2.332;2023-04-01T07:19:41;100067.23;;;19.75;57.29
39275;BME280;24980;48.874;2.332;2023-04-01T07:21:55;100070.21;;;19.77;57.26
39275;BME280;24980;48.874;2.332;2023-04-01T07:24:21;100067.39;;;19.78;57.24
39275;BME280;24980;48.874;2.332;2023-04-01T07:26:54;100080.25;;;19.80;57.20
39275;BME280;24980;48.874;2.332;2023-04-01T07:29:15;100072.94;;;19.80;57.18
39275;BME280;24980;48.874;2.332;2023-04-01T07:34:31;100073.82;;;19.81;57.15
39275;BME280;24980;48.874;2.332;2023-04-01T07:39:44;100078.85;;;19.83;57.12
39275;BME280;24980;48.874;2.332;2023-04-01T07:47:09;100073.94;;;19.81;57.15
39275;BME280;24980;48.874;2.332;2023-04-01T07:49:46;100075.55;;;19.80;57.18
39275;BME280;24980;48.874;2.332;2023-04-01T07:52:08;100084.30;;;19.79;57.20
39275;BME280;24980;48.874;2.332;2023-04-01T07:57:23;100083.00;;;19.76;57.25
39275;BME280;24980;48.874;2.332;2023-04-01T08:02:15;100092.58;;;19.76;57.28
39275;BME280;24980;48.874;2.332;2023-04-01T08:09:47;100096.41;;;19.74;57.32
39275;BME280;24980;48.874;2.332;2023-04-01T08:15:04;100100.70;;;19.72;57.32
39275;BME280;24980;48.874;2.332;2023-04-01T08:17:05;100095.83;;;19.72;57.33
39275;BME280;24980;48.874;2.332;2023-04-01T08:19:45;100101.38;;;19.71;57.33
39275;BME280;24980;48.874;2.332;2023-04-01T08:21:58;100105.47;;;19.69;57.33
39275;BME280;24980;48.874;2.332;2023-04-01T08:24:34;100104.41;;;19.68;57.34
39275;BME280;24980;48.874;2.332;2023-04-01T08:27:00;100107.27;;;19.68;57.35
39275;BME280;24980;48.874;2.332;2023-04-01T08:29:40;100102.56;;;19.67;57.35
39275;BME280;24980;48.874;2.332;2023-04-01T08:32:08;100104.50;;;19.67;57.35
39275;BME280;24980;48.874;2.332;2023-04-01T08:34:38;100106.52;;;19.67;57.35
39275;BME280;24980;48.874;2.332;2023-04-01T08:37:06;100107.20;;;19.66;57.35
39275;BME280;24980;48.874;2.332;2023-04-01T08:39:34;100114.93;;;19.66;57.34
39275;BME280;24980;48.874;2.332;2023-04-01T08:49:56;100104.64;;;19.63;57.30
39275;BME280;24980;48.874;2.332;2023-04-01T09:07:33;100132.09;;;19.62;57.26
39275;BME280;24980;48.874;2.332;2023-04-01T09:12:39;100111.83;;;19.61;57.26
39275;BME280;24980;48.874;2.332;2023-04-01T09:22:21;100112.59;;;19.59;57.25
39275;BME280;24980;48.874;2.332;2023-04-01T09:25:13;100116.12;;;19.59;57.24
39275;BME280;24980;48.874;2.332;2023-04-01T09:27:29;100119.41;;;19.59;57.23
39275;BME280;24980;48.874;2.332;2023-04-01T09:32:21;100123.35;;;19.59;57.21
39275;BME280;24980;48.874;2.332;2023-04-01T09:37:24;100120.03;;;19.58;57.20
39275;BME280;24980;48.874;2.332;2023-04-01T09:42:49;100130.97;;;19.57;57.16
39275;BME280;24980;48.874;2.332;2023-04-01T09:44:57;100117.52;;;19.56;57.15
39275;BME280;24980;48.874;2.332;2023-04-01T10:07:35;100152.91;;;19.56;57.03
39275;BME280;24980;48.874;2.332;2023-04-01T10:10:05;100154.84;;;19.56;57.03
39275;BME280;24980;48.874;2.332;2023-04-01T10:17:44;100154.16;;;19.56;57.01
39275;BME280;24980;48.874;2.332;2023-04-01T10:25:22;100154.33;;;19.52;56.96
39275;BME280;24980;48.874;2.332;2023-04-01T11:00:18;100138.55;;;19.61;56.40
39275;BME280;24980;48.874;2.332;2023-04-01T11:18:01;100123.27;;;19.60;56.12
39275;BME280;24980;48.874;2.332;2023-04-01T11:20:25;100121.08;;;19.60;56.09
39275;BME280;24980;48.874;2.332;2023-04-01T11:25:36;100118.90;;;19.59;56.01
39275;BME280;24980;48.874;2.332;2023-04-01T11:30:33;100122.77;;;19.60;55.97
39275;BME280;24980;48.874;2.332;2023-04-01T11:32:48;100124.10;;;19.61;55.94
39275;BME280;24980;48.874;2.332;2023-04-01T11:35:33;100118.39;;;19.60;55.92
39275;BME280;24980;48.874;2.332;2023-04-01T11:38:02;100122.84;;;19.61;55.92
39275;BME280;24980;48.874;2.332;2023-04-01T11:40:20;100129.98;;;19.61;55.94
39275;BME280;24980;48.874;2.332;2023-04-01T11:45:37;100126.62;;;19.61;55.94
39275;BME280;24980;48.874;2.332;2023-04-01T12:05:31;100146.41;;;19.70;55.66
39275;BME280;24980;48.874;2.332;2023-04-01T12:10:33;100147.80;;;19.72;55.62
39275;BME280;24980;48.874;2.332;2023-04-01T12:15:28;100142.42;;;19.83;55.53
39275;BME280;24980;48.874;2.332;2023-04-01T12:17:56;100141.81;;;19.90;55.49
39275;BME280;24980;48.874;2.332;2023-04-01T12:20:36;100145.42;;;19.95;55.48
39275;BME280;24980;48.874;2.332;2023-04-01T12:25:23;100144.92;;;20.04;55.47
39275;BME280;24980;48.874;2.332;2023-04-01T12:28:15;100137.63;;;20.08;55.45
39275;BME280;24980;48.874;2.332;2023-04-01T12:38:20;100140.72;;;20.14;55.41
39275;BME280;24980;48.874;2.332;2023-04-01T12:43:22;100139.10;;;20.20;55.33
39275;BME280;24980;48.874;2.332;2023-04-01T12:48:05;100135.92;;;20.25;55.27
39275;BME280;24980;48.874;2.332;2023-04-01T12:50:29;100139.68;;;20.29;55.26
39275;BME280;24980;48.874;2.332;2023-04-01T12:55:44;100139.65;;;20.35;55.22
39275;BME280;24980;48.874;2.332;2023-04-01T13:00:54;100133.77;;;20.43;55.15
39275;BME280;24980;48.874;2.332;2023-04-01T13:10:42;100133.89;;;20.51;55.04
39275;BME280;24980;48.874;2.332;2023-04-01T13:13:23;100131.54;;;20.50;55.03
39275;BME280;24980;48.874;2.332;2023-04-01T13:15:44;100127.84;;;20.49;55.01
39275;BME280;24980;48.874;2.332;2023-04-01T13:23:14;100136.79;;;20.44;55.02
39275;BME280;24980;48.874;2.332;2023-04-01T13:26:00;100141.77;;;20.42;55.03
39275;BME280;24980;48.874;2.332;2023-04-01T13:30:44;100138.69;;;20.36;55.00
39275;BME280;24980;48.874;2.332;2023-04-01T13:33:20;100134.31;;;20.36;54.97
39275;BME280;24980;48.874;2.332;2023-04-01T13:35:41;100127.62;;;20.35;54.94
39275;BME280;24980;48.874;2.332;2023-04-01T13:38:17;100140.20;;;20.36;54.92
39275;BME280;24980;48.874;2.332;2023-04-01T13:40:51;100137.33;;;20.37;54.88
39275;BME280;24980;48.874;2.332;2023-04-01T13:43:34;100136.16;;;20.36;54.87
39275;BME280;24980;48.874;2.332;2023-04-01T13:46:16;100137.33;;;20.38;54.88
39275;BME280;24980;48.874;2.332;2023-04-01T13:48:43;100137.33;;;20.38;54.85
39275;BME280;24980;48.874;2.332;2023-04-01T13:55:49;100142.16;;;20.41;54.84
39275;BME280;24980;48.874;2.332;2023-04-01T14:08:36;100148.59;;;20.38;54.85
39275;BME280;24980;48.874;2.332;2023-04-01T14:13:28;100152.45;;;20.34;54.81
39275;BME280;24980;48.874;2.332;2023-04-01T14:18:45;100154.22;;;20.35;54.76
39275;BME280;24980;48.874;2.332;2023-04-01T14:21:07;100154.76;;;20.36;54.74
39275;BME280;24980;48.874;2.332;2023-04-01T14:26:01;100156.72;;;20.40;54.74
39275;BME280;24980;48.874;2.332;2023-04-01T14:31:08;100158.14;;;20.41;54.73
39275;BME280;24980;48.874;2.332;2023-04-01T14:33:46;100156.05;;;20.39;54.72
39275;BME280;24980;48.874;2.332;2023-04-01T14:36:04;100170.36;;;20.39;54.70
39275;BME280;24980;48.874;2.332;2023-04-01T14:38:24;100167.62;;;20.38;54.70
39275;BME280;24980;48.874;2.332;2023-04-01T14:43:47;100165.84;;;20.38;54.66
39275;BME280;24980;48.874;2.332;2023-04-01T14:46:14;100171.79;;;20.39;54.65
39275;BME280;24980;48.874;2.332;2023-04-01T14:48:33;100176.03;;;20.39;54.64
39275;BME280;24980;48.874;2.332;2023-04-01T14:50:54;100172.09;;;20.37;54.64
39275;BME280;24980;48.874;2.332;2023-04-01T14:53:28;100175.38;;;20.37;54.65
39275;BME280;24980;48.874;2.332;2023-04-01T14:55:53;100184.28;;;20.39;54.63
39275;BME280;24980;48.874;2.332;2023-04-01T14:58:22;100190.67;;;20.39;54.62
39275;BME280;24980;48.874;2.332;2023-04-01T15:01:12;100192.99;;;20.40;54.62
39275;BME280;24980;48.874;2.332;2023-04-01T15:03:48;100190.98;;;20.39;54.61
39275;BME280;24980;48.874;2.332;2023-04-01T15:06:10;100196.28;;;20.39;54.61
39275;BME280;24980;48.874;2.332;2023-04-01T15:08:47;100201.33;;;20.39;54.61
39275;BME280;24980;48.874;2.332;2023-04-01T15:23:38;100243.07;;;20.40;54.64
39275;BME280;24980;48.874;2.332;2023-04-01T15:26:13;100244.92;;;20.40;54.64
39275;BME280;24980;48.874;2.332;2023-04-01T15:28:48;100248.47;;;20.39;54.64
39275;BME280;24980;48.874;2.332;2023-04-01T15:31:15;100261.17;;;20.39;54.64
39275;BME280;24980;48.874;2.332;2023-04-01T15:36:43;100265.08;;;20.39;54.63
39275;BME280;24980;48.874;2.332;2023-04-01T15:43:46;100271.23;;;20.38;54.59
39275;BME280;24980;48.874;2.332;2023-04-01T15:46:28;100269.63;;;20.37;54.58
39275;BME280;24980;48.874;2.332;2023-04-01T15:48:43;100280.48;;;20.38;54.58
39275;BME280;24980;48.874;2.332;2023-04-01T15:56:41;100297.06;;;20.38;54.58
39275;BME280;24980;48.874;2.332;2023-04-01T15:58:51;100303.89;;;20.37;54.58
39275;BME280;24980;48.874;2.332;2023-04-01T16:03:54;100306.28;;;20.35;54.57
39275;BME280;24980;48.874;2.332;2023-04-01T16:06:24;100306.75;;;20.36;54.58
39275;BME280;24980;48.874;2.332;2023-04-01T16:13:51;100310.96;;;20.36;54.61
39275;BME280;24980;48.874;2.332;2023-04-01T16:16:35;100309.70;;;20.37;54.60
39275;BME280;24980;48.874;2.332;2023-04-01T16:18:54;100305.83;;;20.36;54.58
39275;BME280;24980;48.874;2.332;2023-04-01T16:21:14;100307.38;;;20.35;54.55
39275;BME280;24980;48.874;2.332;2023-04-01T16:23:50;100307.72;;;20.35;54.51
39275;BME280;24980;48.874;2.332;2023-04-01T16:26:15;100315.29;;;20.35;54.50
39275;BME280;24980;48.874;2.332;2023-04-01T16:31:46;100318.75;;;20.34;54.47
39275;BME280;24980;48.874;2.332;2023-04-01T16:41:33;100334.83;;;20.33;54.43
39275;BME280;24980;48.874;2.332;2023-04-01T16:43:56;100332.30;;;20.33;54.43
39275;BME280;24980;48.874;2.332;2023-04-01T16:51:15;100337.94;;;20.33;54.47
39275;BME280;24980;48.874;2.332;2023-04-01T16:56:43;100340.55;;;20.34;54.58
39275;BME280;24980;48.874;2.332;2023-04-01T16:58:57;100339.78;;;20.34;54.64
39275;BME280;24980;48.874;2.332;2023-04-01T17:03:51;100345.13;;;20.36;54.74
39275;BME280;24980;48.874;2.332;2023-04-01T17:11:49;100354.05;;;20.36;54.86
39275;BME280;24980;48.874;2.332;2023-04-01T17:14:14;100360.03;;;20.37;54.85
39275;BME280;24980;48.874;2.332;2023-04-01T17:23:51;100387.34;;;20.35;54.67
39275;BME280;24980;48.874;2.332;2023-04-01T17:26:40;100395.67;;;20.34;54.62
39275;BME280;24980;48.874;2.332;2023-04-01T17:29:12;100391.72;;;20.33;54.59
39275;BME280;24980;48.874;2.332;2023-04-01T17:36:42;100400.84;;;20.32;54.45
39275;BME280;24980;48.874;2.332;2023-04-01T17:39:30;100399.08;;;20.31;54.41
39275;BME280;24980;48.874;2.332;2023-04-01T17:46:46;100413.05;;;20.29;54.31
39275;BME280;24980;48.874;2.332;2023-04-01T17:49:17;100415.58;;;20.29;54.26
39275;BME280;24980;48.874;2.332;2023-04-01T17:51:40;100421.76;;;20.29;54.24
39275;BME280;24980;48.874;2.332;2023-04-01T17:54:04;100420.08;;;20.28;54.22
39275;BME280;24980;48.874;2.332;2023-04-01T17:56:42;100424.62;;;20.28;54.18
39275;BME280;24980;48.874;2.332;2023-04-01T17:59:10;100424.38;;;20.27;54.17
39275;BME280;24980;48.874;2.332;2023-04-01T18:09:22;100439.10;;;20.27;54.13
39275;BME280;24980;48.874;2.332;2023-04-01T18:11:45;100443.66;;;20.25;54.11
39275;BME280;24980;48.874;2.332;2023-04-01T18:16:55;100452.66;;;20.23;54.10
39275;BME280;24980;48.874;2.332;2023-04-01T18:24:12;100460.94;;;20.22;54.07
39275;BME280;24980;48.874;2.332;2023-04-01T18:29:10;100468.77;;;20.22;54.04
39275;BME280;24980;48.874;2.332;2023-04-01T18:31:36;100478.02;;;20.21;54.04
39275;BME280;24980;48.874;2.332;2023-04-01T18:36:44;100492.24;;;20.22;54.08
39275;BME280;24980;48.874;2.332;2023-04-01T18:39:37;100493.84;;;20.21;54.11
39275;BME280;24980;48.874;2.332;2023-04-01T18:41:47;100500.75;;;20.20;54.13
39275;BME280;24980;48.874;2.332;2023-04-01T18:44:23;100509.66;;;20.21;54.13
39275;BME280;24980;48.874;2.332;2023-04-01T18:46:45;100512.10;;;20.21;54.11
39275;BME280;24980;48.874;2.332;2023-04-01T18:51:54;100519.42;;;20.21;54.08
39275;BME280;24980;48.874;2.332;2023-04-01T18:54:13;100518.84;;;20.20;54.06
39275;BME280;24980;48.874;2.332;2023-04-01T18:56:37;100527.00;;;20.20;54.05
39275;BME280;24980;48.874;2.332;2023-04-01T18:59:23;100532.22;;;20.20;54.04
39275;BME280;24980;48.874;2.332;2023-04-01T19:02:13;100529.55;;;20.18;54.03
39275;BME280;24980;48.874;2.332;2023-04-01T19:04:24;100539.91;;;20.19;54.01
39275;BME280;24980;48.874;2.332;2023-04-01T19:06:54;100541.42;;;20.19;54.01
39275;BME280;24980;48.874;2.332;2023-04-01T19:09:21;100547.14;;;20.18;53.99
39275;BME280;24980;48.874;2.332;2023-04-01T19:14:30;100555.39;;;20.18;53.99